createdAt,value
2023-03-14T00:02:14.561Z,96309.91
2023-03-14T00:04:42.243Z,96322.16
2023-03-14T00:07:13.072Z,96327.13
2023-03-14T00:09:40.758Z,96332.00
2023-03-14T00:12:09.720Z,96335.44
2023-03-14T00:14:37.344Z,96330.16
2023-03-14T00:17:05.523Z,96333.97
2023-03-14T00:19:33.154Z,96342.59
2023-03-14T00:22:00.820Z,96353.34
2023-03-14T00:24:29.783Z,96371.50
2023-03-14T00:26:57.433Z,96355.09
2023-03-14T00:29:25.042Z,96349.72
2023-03-14T00:31:52.684Z,96341.75
2023-03-14T00:34:20.321Z,96345.41
2023-03-14T00:36:47.872Z,96364.72
2023-03-14T00:39:17.825Z,96381.03
2023-03-14T00:41:46.781Z,96390.22
2023-03-14T00:44:14.430Z,96405.56
2023-03-14T00:46:42.192Z,96399.97
2023-03-14T00:49:10.002Z,96419.25
2023-03-14T00:51:37.845Z,96424.34
2023-03-14T00:54:05.805Z,96424.94
2023-03-14T00:56:33.457Z,96423.06
2023-03-14T00:59:02.424Z,96422.81
2023-03-14T01:01:30.162Z,96415.38
2023-03-14T01:03:57.827Z,96416.41
2023-03-14T01:06:27.297Z,96407.75
2023-03-14T01:08:56.484Z,96404.75
2023-03-14T01:11:26.562Z,96385.75
2023-03-14T01:13:55.053Z,96385.34
2023-03-14T01:16:27.095Z,96382.09
2023-03-14T01:18:55.028Z,96376.56
2023-03-14T01:21:25.625Z,96367.47
2023-03-14T01:23:55.206Z,96346.47
2023-03-14T01:26:26.087Z,96342.56
2023-03-14T01:28:55.722Z,96342.22
2023-03-14T01:31:28.493Z,96346.19
2023-03-14T01:33:56.672Z,96331.13
2023-03-14T01:36:25.592Z,96321.38
2023-03-14T01:38:53.268Z,96318.88
2023-03-14T01:41:23.246Z,96311.25
2023-03-14T01:43:51.788Z,96304.34
2023-03-14T01:46:32.990Z,96300.88
2023-03-14T01:49:11.730Z,96294.13
2023-03-14T01:51:46.432Z,96291.59
2023-03-14T01:54:20.721Z,96289.97
2023-03-14T01:56:54.073Z,96283.94
2023-03-14T01:59:25.446Z,96290.75
2023-03-14T02:01:56.525Z,96283.16
2023-03-14T02:04:28.094Z,96275.59
2023-03-14T02:07:03.855Z,96275.28
2023-03-14T02:09:31.772Z,96271.47
2023-03-14T02:12:00.477Z,96254.00
2023-03-14T02:14:32.850Z,96236.59
2023-03-14T02:17:06.351Z,96216.81
2023-03-14T02:19:50.166Z,96206.91
2023-03-14T02:22:18.202Z,96187.50
2023-03-14T02:24:59.278Z,96177.44
2023-03-14T02:27:28.670Z,96171.09
2023-03-14T02:30:02.107Z,96160.16
2023-03-14T02:32:33.525Z,96168.75
2023-03-14T02:35:07.686Z,96173.84
2023-03-14T02:37:40.162Z,96174.22
2023-03-14T02:40:09.696Z,96181.41
2023-03-14T02:42:41.374Z,96182.88
2023-03-14T02:45:35.424Z,96195.47
2023-03-14T02:48:09.838Z,96189.31
2023-03-14T02:50:38.724Z,96196.16
2023-03-14T02:53:06.795Z,96193.91
2023-03-14T02:55:34.440Z,96203.00
2023-03-14T02:58:03.434Z,96201.06
2023-03-14T03:00:31.084Z,96207.00
2023-03-14T03:02:58.754Z,96196.69
2023-03-14T03:05:26.374Z,96181.25
2023-03-14T03:07:54.029Z,96177.19
2023-03-14T03:10:21.612Z,96186.50
2023-03-14T03:12:49.174Z,96185.50
2023-03-14T03:15:18.555Z,96174.56
2023-03-14T03:17:46.347Z,96158.81
2023-03-14T03:20:14.013Z,96163.94
2023-03-14T03:22:41.639Z,96154.16
2023-03-14T03:25:13.122Z,96151.69
2023-03-14T03:27:40.743Z,96151.97
2023-03-14T03:30:10.238Z,96150.25
2023-03-14T03:32:39.231Z,96150.19
2023-03-14T03:35:07.542Z,96139.97
2023-03-14T03:37:36.018Z,96133.25
2023-03-14T03:40:05.480Z,96127.13
2023-03-14T03:42:34.611Z,96118.47
2023-03-14T03:45:02.669Z,96112.44
2023-03-14T03:47:32.129Z,96117.66
2023-03-14T03:50:01.036Z,96115.03
2023-03-14T03:52:28.631Z,96109.72
2023-03-14T03:54:56.356Z,96103.72
2023-03-14T03:57:24.093Z,96085.81
2023-03-14T03:59:51.691Z,96094.94
2023-03-14T04:02:19.413Z,96096.06
2023-03-14T04:04:47.191Z,96086.50
2023-03-14T04:07:18.530Z,96078.22
2023-03-14T04:09:46.311Z,96074.16
2023-03-14T04:12:13.847Z,96073.16
2023-03-14T04:14:41.452Z,96064.75
2023-03-14T04:17:09.081Z,96043.28
2023-03-14T04:19:36.887Z,96043.56
2023-03-14T04:22:06.925Z,96045.00
2023-03-14T04:24:36.444Z,96046.97
2023-03-14T04:27:04.179Z,96030.03
2023-03-14T04:29:31.720Z,96040.41
2023-03-14T04:31:59.336Z,96028.00
2023-03-14T04:34:26.954Z,96034.22
2023-03-14T04:36:54.483Z,96030.19
2023-03-14T04:39:22.038Z,96017.78
2023-03-14T04:41:51.235Z,96005.22
2023-03-14T04:44:19.200Z,96012.06
2023-03-14T04:46:46.840Z,95996.56
2023-03-14T04:49:14.339Z,95982.50
2023-03-14T04:51:41.876Z,95974.09
2023-03-14T04:54:09.670Z,95979.41
2023-03-14T04:56:37.520Z,95961.63
2023-03-14T04:59:06.536Z,95962.72
2023-03-14T05:01:34.099Z,95951.25
2023-03-14T05:04:01.734Z,95953.56
2023-03-14T05:06:29.275Z,95941.38
2023-03-14T05:08:56.808Z,95934.69
2023-03-14T05:11:24.367Z,95937.03
2023-03-14T05:13:51.946Z,95941.09
2023-03-14T05:16:20.905Z,95943.34
2023-03-14T05:18:48.464Z,95942.16
2023-03-14T05:21:16.084Z,95948.75
2023-03-14T05:23:43.681Z,95951.38
2023-03-14T05:26:11.333Z,95944.78
2023-03-14T05:28:38.932Z,95941.75
2023-03-14T05:31:08.785Z,95935.19
2023-03-14T05:33:37.876Z,95931.31
2023-03-14T05:36:06.461Z,95934.72
2023-03-14T05:38:34.099Z,95922.66
2023-03-14T05:41:01.712Z,95926.84
2023-03-14T05:43:29.255Z,95920.97
2023-03-14T05:45:56.892Z,95926.91
2023-03-14T05:48:24.525Z,95936.50
2023-03-14T05:50:57.304Z,95943.69
2023-03-14T05:53:25.043Z,95948.91
2023-03-14T05:55:54.932Z,95949.38
2023-03-14T05:58:24.335Z,95953.97
2023-03-14T06:00:52.317Z,95959.72
2023-03-14T06:03:19.947Z,95967.34
2023-03-14T06:05:50.066Z,95974.59
2023-03-14T06:08:19.040Z,95979.59
2023-03-14T06:10:46.548Z,95977.34
2023-03-14T06:13:14.112Z,95986.09
2023-03-14T06:15:42.054Z,95983.03
2023-03-14T06:18:09.814Z,95970.53
2023-03-14T06:20:38.468Z,95983.84
2023-03-14T06:23:06.470Z,95990.69
2023-03-14T06:25:36.337Z,96000.19
2023-03-14T06:28:05.333Z,96013.50
2023-03-14T06:30:33.151Z,96015.78
2023-03-14T06:33:00.905Z,96022.63
2023-03-14T06:35:29.016Z,96019.97
2023-03-14T06:37:56.819Z,96022.25
2023-03-14T06:40:24.467Z,96024.16
2023-03-14T06:42:53.713Z,96030.63
2023-03-14T06:45:21.582Z,96038.59
2023-03-14T06:47:49.299Z,96030.19
2023-03-14T06:50:19.872Z,96037.81
2023-03-14T06:52:47.598Z,96022.63
2023-03-14T06:55:16.036Z,96037.84
2023-03-14T06:57:44.207Z,96031.75
2023-03-14T07:00:14.533Z,96041.25
2023-03-14T07:02:43.456Z,96044.66
2023-03-14T07:05:11.558Z,96043.91
2023-03-14T07:07:39.269Z,96060.97
2023-03-14T07:10:07.433Z,96064.78
2023-03-14T07:12:35.314Z,96064.38
2023-03-14T07:15:15.757Z,96074.28
2023-03-14T07:17:47.877Z,96075.06
2023-03-14T07:20:16.013Z,96076.16
2023-03-14T07:22:44.762Z,96077.31
2023-03-14T07:25:12.351Z,96090.19
2023-03-14T07:27:40.052Z,96098.53
2023-03-14T07:30:08.534Z,96102.34
2023-03-14T07:32:36.743Z,96103.09
2023-03-14T07:35:07.294Z,96102.72
2023-03-14T07:37:35.228Z,96109.22
2023-03-14T07:40:02.907Z,96115.25
2023-03-14T07:42:30.522Z,96120.56
2023-03-14T07:44:59.084Z,96113.66
2023-03-14T07:47:26.937Z,96124.00
2023-03-14T07:49:54.842Z,96127.38
2023-03-14T07:52:23.826Z,96123.22
2023-03-14T07:54:51.730Z,96124.41
2023-03-14T07:57:19.606Z,96120.16
2023-03-14T07:59:47.177Z,96132.75
2023-03-14T08:02:14.776Z,96131.97
2023-03-14T08:04:42.902Z,96138.09
2023-03-14T08:07:10.730Z,96143.41
2023-03-14T08:09:39.966Z,96145.69
2023-03-14T08:12:08.064Z,96141.13
2023-03-14T08:14:37.196Z,96143.81
2023-03-14T08:17:05.602Z,96149.50
2023-03-14T08:19:33.247Z,96152.16
2023-03-14T08:22:00.936Z,96148.38
2023-03-14T08:24:28.657Z,96151.38
2023-03-14T08:26:57.679Z,96147.97
2023-03-14T08:29:25.323Z,96151.78
2023-03-14T08:31:53.148Z,96150.66
2023-03-14T08:34:21.247Z,96157.13
2023-03-14T08:36:48.918Z,96152.19
2023-03-14T08:39:16.565Z,96160.19
2023-03-14T08:41:44.442Z,96162.44
2023-03-14T08:44:13.762Z,96169.66
2023-03-14T08:46:41.511Z,96167.41
2023-03-14T08:49:09.087Z,96170.81
2023-03-14T08:51:36.651Z,96179.91
2023-03-14T08:54:04.274Z,96187.53
2023-03-14T08:56:31.801Z,96193.63
2023-03-14T08:58:59.384Z,96204.25
2023-03-14T09:01:28.296Z,96205.00
2023-03-14T09:03:55.882Z,96207.31
2023-03-14T09:06:23.540Z,96211.09
2023-03-14T09:08:51.107Z,96216.06
2023-03-14T09:11:18.705Z,96226.31
2023-03-14T09:13:46.326Z,96236.97
2023-03-14T09:16:13.922Z,96247.94
2023-03-14T09:18:42.881Z,96249.88
2023-03-14T09:21:10.479Z,96253.63
2023-03-14T09:23:38.209Z,96267.34
2023-03-14T09:26:06.345Z,96275.69
2023-03-14T09:28:34.186Z,96284.06
2023-03-14T09:31:06.722Z,96293.19
2023-03-14T09:33:34.424Z,96290.47
2023-03-14T09:36:03.786Z,96298.47
2023-03-14T09:38:31.977Z,96300.66
2023-03-14T09:41:03.662Z,96314.59
2023-03-14T09:43:36.183Z,96324.44
2023-03-14T09:46:04.499Z,96330.78
2023-03-14T09:48:34.672Z,96339.88
2023-03-14T09:51:12.425Z,96359.72
2023-03-14T09:53:42.959Z,96364.25
2023-03-14T09:56:17.071Z,96370.28
2023-03-14T09:58:51.339Z,96371.09
2023-03-14T10:01:25.658Z,96368.38
2023-03-14T10:03:57.923Z,96373.97
2023-03-14T10:06:31.739Z,96360.28
2023-03-14T10:08:59.688Z,96358.03
2023-03-14T10:11:28.341Z,96372.03
2023-03-14T10:14:08.588Z,96364.34
2023-03-14T10:16:40.997Z,96379.34
2023-03-14T10:19:12.901Z,96380.13
2023-03-14T10:21:44.256Z,96379.41
2023-03-14T10:24:21.592Z,96382.53
2023-03-14T10:26:52.631Z,96380.31
2023-03-14T10:29:20.556Z,96382.56
2023-03-14T10:34:27.268Z,96392.84
2023-03-14T10:36:58.607Z,96397.38
2023-03-14T10:39:38.579Z,96405.44
2023-03-14T10:42:15.857Z,96404.59
2023-03-14T10:44:44.880Z,96421.34
2023-03-14T10:47:21.174Z,96422.84
2023-03-14T10:49:48.921Z,96423.25
2023-03-14T10:52:26.370Z,96432.81
2023-03-14T10:55:01.678Z,96427.50
2023-03-14T10:57:29.695Z,96447.31
2023-03-14T10:59:58.150Z,96451.03
2023-03-14T11:02:50.560Z,96463.25
2023-03-14T11:05:31.579Z,96460.97
2023-03-14T11:08:03.740Z,96467.81
2023-03-14T11:10:35.426Z,96477.78
2023-03-14T11:13:16.595Z,96484.63
2023-03-14T11:15:57.816Z,96474.75
2023-03-14T11:18:47.273Z,96482.81
2023-03-14T11:21:22.403Z,96502.56
2023-03-14T11:24:10.045Z,96510.56
2023-03-14T11:26:43.454Z,96518.22
2023-03-14T11:29:22.099Z,96536.84
2023-03-14T11:31:49.955Z,96585.88
2023-03-14T11:34:27.188Z,96606.31
2023-03-14T11:37:02.238Z,96624.00
2023-03-14T11:39:41.004Z,96656.66
2023-03-14T11:42:16.080Z,96659.97
2023-03-14T11:44:48.977Z,96656.44
2023-03-14T11:47:22.187Z,96659.25
2023-03-14T11:49:54.539Z,96658.03
2023-03-14T11:52:31.597Z,96663.16
2023-03-14T11:55:08.195Z,96664.22
2023-03-14T11:57:36.173Z,96664.16
2023-03-14T12:00:17.785Z,96662.03
2023-03-14T12:02:54.316Z,96666.22
2023-03-14T12:05:57.492Z,96672.03
2023-03-14T12:08:42.978Z,96664.59
2023-03-14T12:11:19.224Z,96671.28
2023-03-14T12:13:50.553Z,96687.88
2023-03-14T12:16:31.506Z,96700.00
2023-03-14T12:19:35.453Z,96691.81
2023-03-14T12:22:18.360Z,96700.53
2023-03-14T12:24:51.382Z,96702.91
2023-03-14T12:27:44.291Z,96698.91
2023-03-14T12:30:25.922Z,96691.81
2023-03-14T12:33:35.319Z,96691.25
2023-03-14T12:36:49.220Z,96694.91
2023-03-14T12:39:38.896Z,96686.19
2023-03-14T12:42:12.300Z,96691.75
2023-03-14T12:44:44.900Z,96684.72
2023-03-14T12:47:46.889Z,96675.78
2023-03-14T12:50:21.314Z,96670.56
2023-03-14T12:53:15.530Z,96661.56
2023-03-14T12:55:52.814Z,96649.00
2023-03-14T12:58:29.504Z,96644.13
2023-03-14T13:01:03.077Z,96650.59
2023-03-14T13:03:43.837Z,96633.78
2023-03-14T13:06:11.782Z,96631.50
2023-03-14T13:08:42.038Z,96634.25
2023-03-14T13:11:13.926Z,96628.78
2023-03-14T13:13:49.043Z,96632.22
2023-03-14T13:16:21.758Z,96632.13
2023-03-14T13:18:52.248Z,96621.97
2023-03-14T13:21:22.671Z,96610.47
2023-03-14T13:23:58.778Z,96616.22
2023-03-14T13:26:34.984Z,96622.31
2023-03-14T13:29:15.298Z,96617.38
2023-03-14T13:31:46.334Z,96627.31
2023-03-14T13:34:14.845Z,96622.75
2023-03-14T13:36:42.394Z,96627.69
2023-03-14T13:39:14.818Z,96631.50
2023-03-14T13:41:44.211Z,96630.75
2023-03-14T13:44:19.125Z,96634.56
2023-03-14T13:46:48.067Z,96639.88
2023-03-14T13:49:24.689Z,96631.88
2023-03-14T13:51:52.776Z,96641.19
2023-03-14T13:54:22.513Z,96629.50
2023-03-14T13:57:00.580Z,96639.84
2023-03-14T13:59:30.244Z,96638.38
2023-03-14T14:02:05.070Z,96638.38
2023-03-14T14:04:38.020Z,96630.00
2023-03-14T14:07:10.938Z,96633.03
2023-03-14T14:09:42.134Z,96621.22
2023-03-14T14:12:16.957Z,96627.72
2023-03-14T14:14:51.265Z,96634.16
2023-03-14T14:17:25.217Z,96644.13
2023-03-14T14:19:55.071Z,96647.47
2023-03-14T14:22:23.503Z,96668.56
2023-03-14T14:24:51.582Z,96664.06
2023-03-14T14:27:26.282Z,96672.34
2023-03-14T14:30:00.550Z,96677.00
2023-03-14T14:32:36.547Z,96697.16
2023-03-14T14:35:05.208Z,96708.44
2023-03-14T14:37:35.901Z,96707.25
2023-03-14T14:40:11.390Z,96712.09
2023-03-14T14:42:41.919Z,96707.72
2023-03-14T14:45:17.245Z,96717.31
2023-03-14T14:47:54.405Z,96717.88
2023-03-14T14:50:30.523Z,96727.25
2023-03-14T14:52:59.231Z,96728.22
2023-03-14T14:55:34.199Z,96738.47
2023-03-14T14:58:20.856Z,96739.78
2023-03-14T15:00:55.672Z,96727.28
2023-03-14T15:03:28.996Z,96732.34
2023-03-14T15:05:56.864Z,96719.44
2023-03-14T15:08:27.011Z,96732.16
2023-03-14T15:10:55.244Z,96735.00
2023-03-14T15:13:22.913Z,96736.91
2023-03-14T15:15:51.554Z,96748.97
2023-03-14T15:18:19.669Z,96751.03
2023-03-14T15:20:48.640Z,96749.19
2023-03-14T15:23:18.856Z,96754.31
2023-03-14T15:25:55.420Z,96754.94
2023-03-14T15:28:25.624Z,96755.34
2023-03-14T15:30:55.266Z,96748.56
2023-03-14T15:33:23.376Z,96738.38
2023-03-14T15:35:53.396Z,96740.03
2023-03-14T15:38:22.695Z,96748.34
2023-03-14T15:40:51.271Z,96745.59
2023-03-14T15:43:19.461Z,96744.13
2023-03-14T15:45:47.234Z,96749.34
2023-03-14T15:48:17.913Z,96743.22
2023-03-14T15:50:45.887Z,96741.19
2023-03-14T15:53:15.901Z,96742.22
2023-03-14T15:55:46.149Z,96743.25
2023-03-14T15:58:21.220Z,96730.97
2023-03-14T16:00:49.796Z,96733.59
2023-03-14T16:03:17.799Z,96732.25
2023-03-14T16:05:45.469Z,96731.16
2023-03-14T16:08:13.196Z,96720.72
2023-03-14T16:10:42.170Z,96724.16
2023-03-14T16:13:10.201Z,96726.84
2023-03-14T16:15:37.847Z,96728.84
2023-03-14T16:18:20.677Z,96738.25
2023-03-14T16:20:53.956Z,96749.38
2023-03-14T16:23:21.980Z,96746.69
2023-03-14T16:25:52.256Z,96739.59
2023-03-14T16:28:19.945Z,96745.53
2023-03-14T16:30:50.637Z,96737.22
2023-03-14T16:33:19.485Z,96753.19
2023-03-14T16:35:57.414Z,96749.13
2023-03-14T16:38:31.525Z,96750.19
2023-03-14T16:41:04.942Z,96765.94
2023-03-14T16:43:33.835Z,96771.81
2023-03-14T16:46:01.539Z,96777.81
2023-03-14T16:48:29.791Z,96781.22
2023-03-14T16:50:57.580Z,96782.19
2023-03-14T16:53:26.139Z,96778.09
2023-03-14T16:55:53.778Z,96782.44
2023-03-14T16:58:23.356Z,96784.59
2023-03-14T17:00:51.353Z,96796.88
2023-03-14T17:03:19.093Z,96795.88
2023-03-14T17:05:47.679Z,96799.31
2023-03-14T17:08:16.440Z,96805.44
2023-03-14T17:10:44.175Z,96809.63
2023-03-14T17:13:12.298Z,96810.78
2023-03-14T17:15:46.033Z,96819.53
2023-03-14T17:18:13.769Z,96825.19
2023-03-14T17:20:41.758Z,96829.31
2023-03-14T17:23:11.194Z,96836.59
2023-03-14T17:25:40.397Z,96843.41
2023-03-14T17:28:07.976Z,96843.19
2023-03-14T17:30:35.725Z,96853.72
2023-03-14T17:33:04.851Z,96854.56
2023-03-14T17:35:32.472Z,96869.88
2023-03-14T17:38:00.714Z,96867.53
2023-03-14T17:40:28.636Z,96870.94
2023-03-14T17:42:56.424Z,96861.41
2023-03-14T17:45:24.028Z,96874.41
2023-03-14T17:47:53.038Z,96881.84
2023-03-14T17:50:23.594Z,96883.06
2023-03-14T17:52:51.371Z,96889.53
2023-03-14T17:55:20.067Z,96894.16
2023-03-14T17:57:47.664Z,96895.66
2023-03-14T18:00:16.853Z,96910.41
2023-03-14T18:02:44.569Z,96930.41
2023-03-14T18:05:14.747Z,96929.91
2023-03-14T18:07:43.778Z,96937.06
2023-03-14T18:10:11.878Z,96941.41
2023-03-14T18:12:39.441Z,96944.19
2023-03-14T18:15:08.105Z,96948.59
2023-03-14T18:17:35.757Z,96945.56
2023-03-14T18:20:03.766Z,96957.47
2023-03-14T18:22:31.337Z,96953.41
2023-03-14T18:25:00.265Z,96958.91
2023-03-14T18:27:28.075Z,96969.38
2023-03-14T18:29:55.650Z,96964.09
2023-03-14T18:32:23.427Z,96966.09
2023-03-14T18:34:51.155Z,96972.50
2023-03-14T18:37:18.799Z,96982.06
2023-03-14T18:39:46.597Z,96984.28
2023-03-14T18:42:15.828Z,96994.16
2023-03-14T18:44:43.420Z,97003.25
2023-03-14T18:47:11.187Z,97005.72
2023-03-14T18:49:39.094Z,97014.84
2023-03-14T18:52:06.680Z,97016.72
2023-03-14T18:54:44.952Z,97013.56
2023-03-14T18:57:42.283Z,97012.44
2023-03-14T19:00:14.469Z,97014.47
2023-03-14T19:02:42.122Z,97016.78
2023-03-14T19:05:09.795Z,97005.44
2023-03-14T19:07:37.319Z,97008.44
2023-03-14T19:10:05.938Z,97008.81
2023-03-14T19:12:34.843Z,97017.03
2023-03-14T19:15:03.294Z,97013.38
2023-03-14T19:17:30.914Z,97018.31
2023-03-14T19:19:58.856Z,97016.72
2023-03-14T19:22:27.560Z,97019.91
2023-03-14T19:24:55.137Z,97010.50
2023-03-14T19:27:22.818Z,97013.09
2023-03-14T19:29:51.799Z,97012.34
2023-03-14T19:32:20.273Z,97016.66
2023-03-14T19:34:47.897Z,97021.09
2023-03-14T19:37:15.589Z,97022.34
2023-03-14T19:39:43.255Z,97023.84
2023-03-14T19:42:10.930Z,97025.09
2023-03-14T19:44:38.941Z,97024.44
2023-03-14T19:47:08.053Z,97030.63
2023-03-14T19:49:36.210Z,97019.53
2023-03-14T19:52:04.269Z,97028.75
2023-03-14T19:54:31.892Z,97034.66
2023-03-14T19:56:59.518Z,97035.63
2023-03-14T19:59:27.137Z,97028.00
2023-03-14T20:01:54.902Z,97038.16
2023-03-14T20:04:23.931Z,97036.34
2023-03-14T20:06:51.779Z,97042.00
2023-03-14T20:09:19.686Z,97044.81
2023-03-14T20:11:48.091Z,97052.50
2023-03-14T20:14:15.746Z,97051.31
2023-03-14T20:16:43.689Z,97054.41
2023-03-14T20:19:12.879Z,97055.81
2023-03-14T20:21:41.941Z,97058.91
2023-03-14T20:24:09.676Z,97055.34
2023-03-14T20:26:38.068Z,97059.19
2023-03-14T20:29:05.665Z,97066.31
2023-03-14T20:31:33.520Z,97069.88
2023-03-14T20:34:02.207Z,97071.13
2023-03-14T20:36:29.922Z,97076.66
2023-03-14T20:38:58.929Z,97074.19
2023-03-14T20:41:26.698Z,97075.72
2023-03-14T20:43:54.401Z,97075.81
2023-03-14T20:46:22.114Z,97080.25
2023-03-14T20:48:49.827Z,97083.88
2023-03-14T20:51:17.473Z,97079.13
2023-03-14T20:53:45.192Z,97089.13
2023-03-14T20:56:14.089Z,97087.44
2023-03-14T20:58:41.800Z,97083.53
2023-03-14T21:01:23.316Z,97096.66
2023-03-14T21:03:52.021Z,97090.88
2023-03-14T21:06:19.584Z,97098.31
2023-03-14T21:08:47.506Z,97090.22
2023-03-14T21:11:16.386Z,97091.38
2023-03-14T21:13:43.940Z,97077.66
2023-03-14T21:16:11.568Z,97093.78
2023-03-14T21:18:39.194Z,97087.94
2023-03-14T21:21:07.466Z,97097.84
2023-03-14T21:23:35.133Z,97082.84
2023-03-14T21:26:02.909Z,97084.41
2023-03-14T21:28:32.258Z,97076.47
2023-03-14T21:31:04.960Z,97085.56
2023-03-14T21:33:32.801Z,97092.41
2023-03-14T21:36:00.722Z,97084.78
2023-03-14T21:38:28.328Z,97097.44
2023-03-14T21:40:56.464Z,97097.81
2023-03-14T21:43:24.474Z,97087.28
2023-03-14T21:45:53.863Z,97079.72
2023-03-14T21:48:22.420Z,97070.22
2023-03-14T21:50:52.399Z,97065.53
2023-03-14T21:53:20.702Z,97072.91
2023-03-14T21:55:48.416Z,97084.06
2023-03-14T21:58:15.992Z,97087.66
2023-03-14T22:00:44.757Z,97081.25
2023-03-14T22:03:13.980Z,97082.28
2023-03-14T22:05:44.748Z,97083.84
2023-03-14T22:08:14.381Z,97094.47
2023-03-14T22:10:45.289Z,97087.78
2023-03-14T22:13:13.127Z,97092.31
2023-03-14T22:15:41.545Z,97089.94
2023-03-14T22:18:09.227Z,97083.81
2023-03-14T22:20:38.253Z,97086.56
2023-03-14T22:23:05.835Z,97107.03
2023-03-14T22:25:33.452Z,97100.63
2023-03-14T22:28:01.048Z,97090.16
2023-03-14T22:30:28.637Z,97088.56
2023-03-14T22:32:56.469Z,97080.72
2023-03-14T22:35:24.033Z,97092.56
2023-03-14T22:37:53.316Z,97100.66
2023-03-14T22:40:21.149Z,97109.03
2023-03-14T22:42:51.652Z,97117.31
2023-03-14T22:45:19.372Z,97134.59
2023-03-14T22:47:47.028Z,97134.22
2023-03-14T22:50:14.879Z,97143.72
2023-03-14T22:52:42.455Z,97156.94
2023-03-14T22:55:14.082Z,97149.47
2023-03-14T22:57:41.973Z,97160.34
2023-03-14T23:00:11.224Z,97162.81
2023-03-14T23:02:39.876Z,97159.03
2023-03-14T23:05:08.287Z,97160.31
2023-03-14T23:07:36.120Z,97156.47
2023-03-14T23:10:04.459Z,97149.72
2023-03-14T23:12:33.366Z,97162.16
2023-03-14T23:15:00.915Z,97152.59
2023-03-14T23:17:28.489Z,97153.53
2023-03-14T23:19:56.133Z,97160.56
2023-03-14T23:22:23.666Z,97156.13
2023-03-14T23:24:51.215Z,97159.09
2023-03-14T23:27:18.831Z,97160.13
2023-03-14T23:29:47.922Z,97158.22
2023-03-14T23:32:15.716Z,97158.47
2023-03-14T23:34:43.898Z,97157.06
2023-03-14T23:37:11.916Z,97165.47
2023-03-14T23:39:39.781Z,97178.72
2023-03-14T23:42:07.948Z,97180.94
2023-03-14T23:44:36.008Z,97173.84
2023-03-14T23:47:08.327Z,97186.00
2023-03-14T23:49:35.940Z,97185.13
2023-03-14T23:52:04.194Z,97180.84
2023-03-14T23:54:31.844Z,97177.22
2023-03-14T23:56:59.548Z,97179.25
2023-03-14T23:59:27.082Z,97171.03
